KESWICK RESERVOIR (KES)

Elevation: 596' · SACRAMENTO R basin · Operator: US Bureau of Reclamation

Provisional data, subject to change.
Query executed Sunday at 15:34:21   clock

Select a sensor type for a plot of data.
Note: Reservoir Flows are daily averages.

Earlier

Date RES ELE    STORAGE    RES CHG    OUTFLOW    INFLOW   
 FEET   AF   AF   CFS   CFS  
07/29/2016 584.97 22488 487 10188 10442
07/30/2016 584.76 22359 -129 10189 10130
07/31/2016 584.69 22316 -43 10188 10173
08/01/2016 585.12 22582 266 10189 10331
08/02/2016 585.14 22595 13 10190 10205
08/03/2016 584.97 22488 -107 10193 10146
08/04/2016 584.39 22131 -357 10187 10014
08/05/2016 584.52 22211 80 10189 10236
08/06/2016 584.02 21902 -309 10190 10038
08/07/2016 584.06 21927 25 10156 10175
08/08/2016 584.50 22199 272 10071 10214
08/09/2016 585.25 22664 465 10083 10325
08/10/2016 585.36 22733 69 9963 10004
08/11/2016 584.06 21927 -806 10048 9648
08/12/2016 583.84 21793 -134 10187 10125
08/13/2016 585.31 22702 909 10188 10652
08/14/2016 585.38 22746 44 10159 10187
08/15/2016 583.99 21884 -862 10074 9647
08/16/2016 584.63 22279 395 10137 10344
08/17/2016 585.00 22507 228 10159 10282
08/18/2016 585.63 22903 396 10188 10396
08/19/2016 585.48 22808 -95 10187 10146
08/20/2016 585.23 22651 -157 10137 10064
08/21/2016 585.66 22921 270 10138 10281
08/22/2016 585.37 22739 -182 10170 10083
08/23/2016 585.16 22607 -132 10140 10080
08/24/2016 585.17 22614 7 10140 10151
08/25/2016 583.92 21841 -773 10113 9729
08/26/2016 584.20 22013 172 10134 10227
08/27/2016 583.47 21568 -445 10136 9916
08/28/2016 -- -- -- -- --

Later | Latest

Warning! This data is preliminary and subject to revision.

Show KES Map | Plot KES Data | 1 Month KES Data | Real-Time KES Data | KES Info